createdAt,value
2023-02-24T00:02:48.842Z,44.75
2023-02-24T00:05:30.029Z,34.42
2023-02-24T00:08:18.565Z,33.60
2023-02-24T00:11:04.760Z,38.03
2023-02-24T00:13:51.555Z,34.08
2023-02-24T00:16:47.341Z,37.25
2023-02-24T00:19:38.307Z,41.17
2023-02-24T00:22:30.289Z,33.20
2023-02-24T00:25:12.376Z,37.47
2023-02-24T00:27:52.873Z,41.05
2023-02-24T00:30:44.251Z,30.42
2023-02-24T00:33:23.689Z,29.88
2023-02-24T00:36:07.428Z,33.15
2023-02-24T00:39:12.399Z,26.63
2023-02-24T00:42:20.449Z,32.75
2023-02-24T00:45:16.891Z,28.65
2023-02-24T00:47:57.731Z,33.50
2023-02-24T00:50:44.293Z,33.55
2023-02-24T00:53:38.623Z,33.58
2023-02-24T00:59:01.554Z,37.72
2023-02-24T01:01:49.738Z,34.88
2023-02-24T01:04:21.941Z,31.05
2023-02-24T01:07:01.866Z,33.08
2023-02-24T01:09:47.859Z,38.85
2023-02-24T01:12:49.823Z,32.78
2023-02-24T01:15:34.089Z,46.92
2023-02-24T01:18:23.964Z,41.13
2023-02-24T01:21:13.812Z,35.45
2023-02-24T01:23:55.818Z,37.05
2023-02-24T01:26:35.578Z,39.75
2023-02-24T01:29:35.823Z,37.55
2023-02-24T01:32:42.952Z,33.60
2023-02-24T01:35:25.710Z,36.10
2023-02-24T01:38:12.818Z,38.15
2023-02-24T01:41:13.205Z,43.25
2023-02-24T01:44:36.809Z,34.38
2023-02-24T01:47:35.488Z,44.38
2023-02-24T01:50:15.664Z,37.83
2023-02-24T01:53:04.233Z,41.17
2023-02-24T01:55:50.843Z,33.00
2023-02-24T01:58:38.558Z,40.55
2023-02-24T02:01:23.583Z,44.95
2023-02-24T02:04:16.706Z,35.40
2023-02-24T02:06:58.429Z,35.72
2023-02-24T02:09:50.002Z,32.03
2023-02-24T02:12:34.022Z,36.85
2023-02-24T02:15:23.339Z,34.70
2023-02-24T02:19:03.242Z,35.10
2023-02-24T02:22:23.859Z,33.50
2023-02-24T02:25:00.389Z,34.42
2023-02-24T02:28:13.743Z,45.30
2023-02-24T02:31:36.315Z,37.13
2023-02-24T02:34:40.784Z,35.63
2023-02-24T02:37:35.653Z,38.78
2023-02-24T02:40:33.194Z,31.58
2023-02-24T02:43:43.112Z,36.67
2023-02-24T02:46:42.844Z,36.78
2023-02-24T02:49:53.585Z,37.55
2023-02-24T02:53:04.787Z,31.63
2023-02-24T02:56:07.796Z,39.47
2023-02-24T02:58:56.269Z,34.67
2023-02-24T03:01:41.657Z,30.40
2023-02-24T03:04:26.698Z,33.78
2023-02-24T03:07:12.763Z,38.35
2023-02-24T03:10:04.676Z,38.15
2023-02-24T03:12:47.407Z,27.80
2023-02-24T03:15:28.621Z,32.75
2023-02-24T03:18:14.857Z,35.17
2023-02-24T03:21:15.395Z,33.03
2023-02-24T03:24:10.832Z,29.83
2023-02-24T03:27:06.404Z,37.47
2023-02-24T03:29:58.569Z,32.47
2023-02-24T03:32:51.486Z,27.58
2023-02-24T03:35:57.535Z,30.30
2023-02-24T03:38:54.387Z,32.58
2023-02-24T03:44:22.005Z,26.90
2023-02-24T03:46:59.790Z,28.67
2023-02-24T03:49:44.887Z,36.03
2023-02-24T03:52:40.266Z,30.17
2023-02-24T03:55:34.502Z,32.30
2023-02-24T03:58:38.659Z,32.83
2023-02-24T04:01:54.032Z,35.60
2023-02-24T04:04:31.861Z,36.33
2023-02-24T04:07:54.979Z,32.78
2023-02-24T04:10:58.793Z,36.47
2023-02-24T04:13:54.506Z,32.60
2023-02-24T04:16:57.079Z,40.72
2023-02-24T04:19:40.939Z,42.53
2023-02-24T04:22:25.665Z,33.97
2023-02-24T04:25:16.418Z,35.22
2023-02-24T04:27:54.945Z,34.20
2023-02-24T04:30:41.389Z,29.13
2023-02-24T04:33:30.897Z,33.22
2023-02-24T04:36:26.711Z,33.45
2023-02-24T04:39:07.890Z,31.77
2023-02-24T04:42:01.767Z,33.42
2023-02-24T04:44:58.058Z,36.30
2023-02-24T04:47:42.019Z,33.88
2023-02-24T04:50:23.098Z,34.75
2023-02-24T04:53:09.446Z,38.00
2023-02-24T04:56:01.792Z,34.35
2023-02-24T04:58:40.137Z,40.22
2023-02-24T05:01:25.952Z,46.28
2023-02-24T05:04:09.957Z,36.53
2023-02-24T05:07:05.353Z,36.10
2023-02-24T05:09:48.854Z,37.83
2023-02-24T05:12:39.260Z,40.72
2023-02-24T05:15:17.951Z,42.63
2023-02-24T05:18:22.007Z,41.33
2023-02-24T05:21:35.850Z,44.20
2023-02-24T05:24:19.162Z,37.95
2023-02-24T05:27:07.084Z,35.50
2023-02-24T05:29:47.438Z,39.20
2023-02-24T05:32:20.044Z,36.97
2023-02-24T05:35:24.796Z,35.70
2023-02-24T05:38:14.337Z,41.22
2023-02-24T05:41:04.981Z,35.15
2023-02-24T05:43:54.985Z,35.45
2023-02-24T05:46:42.777Z,38.08
2023-02-24T05:49:31.656Z,38.30
2023-02-24T05:52:24.605Z,40.97
2023-02-24T05:55:14.141Z,40.10
2023-02-24T05:58:23.774Z,44.03
2023-02-24T06:01:24.298Z,41.15
2023-02-24T06:04:21.101Z,47.40
2023-02-24T06:07:12.341Z,45.58
2023-02-24T06:09:56.731Z,41.13
2023-02-24T06:12:41.773Z,43.95
2023-02-24T06:15:22.219Z,39.28
2023-02-24T06:18:09.909Z,43.78
2023-02-24T06:20:51.312Z,41.00
2023-02-24T06:23:36.575Z,42.67
2023-02-24T06:26:19.773Z,44.75
2023-02-24T06:29:08.099Z,47.50
2023-02-24T06:31:59.973Z,46.17
2023-02-24T06:34:41.966Z,56.70
2023-02-24T06:37:31.821Z,58.90
2023-02-24T06:40:21.623Z,54.42
2023-02-24T06:43:07.786Z,58.30
2023-02-24T06:45:56.728Z,53.65
2023-02-24T06:48:40.100Z,62.15
2023-02-24T06:51:26.000Z,53.95
2023-02-24T06:54:19.342Z,57.95
2023-02-24T06:57:06.667Z,49.80
2023-02-24T06:59:56.136Z,45.58
2023-02-24T07:02:40.230Z,49.65
2023-02-24T07:05:19.912Z,43.58
2023-02-24T07:08:04.194Z,40.45
2023-02-24T07:10:56.798Z,48.50
2023-02-24T07:13:31.931Z,56.95
2023-02-24T07:16:29.012Z,45.22
2023-02-24T07:19:13.667Z,54.08
2023-02-24T07:22:00.786Z,52.35
2023-02-24T07:24:46.781Z,52.80
2023-02-24T07:27:33.799Z,52.05
2023-02-24T07:30:13.755Z,48.72
2023-02-24T07:33:04.823Z,53.88
2023-02-24T07:36:00.817Z,45.47
2023-02-24T07:38:41.790Z,47.67
2023-02-24T07:41:37.132Z,46.05
2023-02-24T07:44:19.842Z,51.85
2023-02-24T07:47:02.113Z,49.45
2023-02-24T07:49:45.932Z,51.42
2023-02-24T07:52:32.594Z,44.92
2023-02-24T07:55:25.854Z,46.17
2023-02-24T07:58:06.609Z,42.20
2023-02-24T08:01:14.361Z,44.97
2023-02-24T08:03:52.687Z,41.67
2023-02-24T08:07:03.821Z,43.35
2023-02-24T08:10:07.342Z,36.45
2023-02-24T08:13:03.130Z,47.40
2023-02-24T08:15:51.959Z,37.92
2023-02-24T08:18:37.605Z,46.33
2023-02-24T08:21:28.830Z,51.95
2023-02-24T08:24:25.141Z,46.03
2023-02-24T08:27:17.531Z,45.00
2023-02-24T08:30:04.533Z,42.38
2023-02-24T08:32:54.175Z,40.55
2023-02-24T08:35:44.743Z,43.10
2023-02-24T08:38:40.827Z,49.58
2023-02-24T08:41:56.736Z,45.35
2023-02-24T08:44:37.410Z,45.15
2023-02-24T08:47:31.148Z,39.38
2023-02-24T08:50:14.927Z,43.88
2023-02-24T08:52:58.586Z,44.00
2023-02-24T08:55:41.110Z,44.08
2023-02-24T08:58:27.219Z,42.67
2023-02-24T09:01:19.465Z,41.40
2023-02-24T09:04:07.381Z,45.05
2023-02-24T09:06:51.290Z,38.67
2023-02-24T09:09:42.366Z,40.72
2023-02-24T09:12:26.863Z,44.55
2023-02-24T09:15:15.989Z,47.20
2023-02-24T09:18:07.523Z,47.38
2023-02-24T09:24:10.176Z,47.63
2023-02-24T09:27:14.682Z,45.22
2023-02-24T09:30:08.319Z,42.85
2023-02-24T09:32:48.312Z,39.20
2023-02-24T09:35:39.853Z,42.28
2023-02-24T09:38:47.563Z,41.85
2023-02-24T09:41:34.698Z,41.60
2023-02-24T09:44:26.677Z,40.80
2023-02-24T09:51:02.558Z,41.08
2023-02-24T09:53:52.800Z,42.15
2023-02-24T09:56:44.158Z,41.92
2023-02-24T10:00:24.861Z,39.40
2023-02-24T10:03:21.839Z,45.88
2023-02-24T10:06:35.419Z,36.70
2023-02-24T10:09:45.505Z,40.45
2023-02-24T10:12:29.970Z,39.05
2023-02-24T10:15:42.165Z,35.85
2023-02-24T10:18:45.580Z,41.55
2023-02-24T10:22:00.280Z,39.58
2023-02-24T10:25:11.873Z,41.50
2023-02-24T10:28:11.250Z,40.20
2023-02-24T10:31:25.066Z,45.40
2023-02-24T10:34:31.815Z,48.88
2023-02-24T10:37:29.415Z,48.85
2023-02-24T10:40:12.076Z,40.35
2023-02-24T10:43:21.294Z,43.22
2023-02-24T10:46:17.415Z,42.90
2023-02-24T10:49:11.888Z,43.05
2023-02-24T10:51:55.297Z,40.95
2023-02-24T10:55:02.785Z,42.22
2023-02-24T10:57:59.178Z,46.95
2023-02-24T11:01:03.339Z,45.47
2023-02-24T11:04:02.135Z,41.85
2023-02-24T11:06:53.807Z,44.30
2023-02-24T11:09:32.437Z,43.75
2023-02-24T11:12:42.658Z,48.40
2023-02-24T11:16:02.563Z,45.53
2023-02-24T11:18:41.734Z,41.60
2023-02-24T11:21:28.406Z,43.78
2023-02-24T11:24:18.659Z,46.15
2023-02-24T11:27:06.417Z,48.33
2023-02-24T11:30:32.999Z,42.80
2023-02-24T11:34:00.564Z,44.92
2023-02-24T11:37:06.691Z,49.15
2023-02-24T11:40:09.829Z,42.35
2023-02-24T11:42:56.191Z,50.30
2023-02-24T11:45:51.682Z,43.50
2023-02-24T11:48:52.276Z,51.20
2023-02-24T11:51:31.504Z,50.25
2023-02-24T11:54:26.449Z,48.70
2023-02-24T11:57:20.948Z,48.00
2023-02-24T12:00:16.367Z,40.95
2023-02-24T12:03:06.302Z,42.25
2023-02-24T12:06:06.024Z,45.03
2023-02-24T12:08:52.902Z,43.85
2023-02-24T12:11:47.694Z,40.85
2023-02-24T12:14:51.676Z,46.90
2023-02-24T12:17:40.035Z,48.40
2023-02-24T12:20:30.652Z,43.13
2023-02-24T12:23:37.653Z,47.22
2023-02-24T12:26:18.800Z,46.88
2023-02-24T12:32:10.812Z,40.47
2023-02-24T12:35:39.560Z,43.92
2023-02-24T12:38:31.377Z,53.08
2023-02-24T12:41:22.015Z,44.78
2023-02-24T12:44:10.873Z,46.38
2023-02-24T12:47:27.010Z,47.08
2023-02-24T12:50:24.197Z,44.15
2023-02-24T12:53:25.921Z,42.90
2023-02-24T12:57:14.038Z,42.20
2023-02-24T12:59:54.925Z,48.75
2023-02-24T13:03:18.539Z,44.13
2023-02-24T13:06:43.256Z,39.47
2023-02-24T13:09:44.527Z,48.38
2023-02-24T13:12:34.998Z,41.47
2023-02-24T13:15:37.772Z,38.78
2023-02-24T13:18:33.683Z,43.65
2023-02-24T13:21:23.448Z,48.90
2023-02-24T13:24:31.412Z,39.85
2023-02-24T13:27:39.025Z,40.80
2023-02-24T13:30:42.834Z,39.67
2023-02-24T13:33:44.509Z,45.85
2023-02-24T13:36:26.837Z,44.53
2023-02-24T13:39:34.838Z,43.90
2023-02-24T13:42:33.579Z,47.55
2023-02-24T13:45:30.861Z,51.03
2023-02-24T13:48:40.805Z,41.97
2023-02-24T13:51:25.001Z,50.28
2023-02-24T13:54:24.944Z,52.22
2023-02-24T14:00:35.828Z,46.83
2023-02-24T14:03:28.337Z,53.00
2023-02-24T14:06:09.632Z,42.15
2023-02-24T14:09:00.822Z,43.72
2023-02-24T14:11:51.552Z,58.70
2023-02-24T14:14:41.454Z,51.70
2023-02-24T14:18:03.936Z,53.13
2023-02-24T14:20:49.976Z,49.83
2023-02-24T14:23:36.176Z,55.75
2023-02-24T14:26:28.880Z,51.65
2023-02-24T14:29:11.445Z,50.28
2023-02-24T14:31:54.198Z,52.70
2023-02-24T14:34:58.942Z,59.75
2023-02-24T14:37:44.240Z,51.85
2023-02-24T14:40:30.342Z,53.70
2023-02-24T14:43:15.058Z,48.53
2023-02-24T14:45:57.749Z,52.53
2023-02-24T14:48:36.624Z,51.00
2023-02-24T14:51:31.486Z,46.20
2023-02-24T14:54:23.375Z,51.75
2023-02-24T14:57:07.766Z,54.38
2023-02-24T15:00:29.890Z,57.28
2023-02-24T15:03:16.950Z,54.72
2023-02-24T15:06:00.449Z,60.20
2023-02-24T15:08:52.796Z,54.28
2023-02-24T15:11:41.124Z,57.25
2023-02-24T15:14:44.884Z,56.33
2023-02-24T15:17:29.529Z,51.33
2023-02-24T15:20:26.764Z,52.60
2023-02-24T15:23:13.382Z,55.83
2023-02-24T15:25:59.314Z,51.08
2023-02-24T15:28:45.812Z,46.90
2023-02-24T15:31:35.955Z,49.40
2023-02-24T15:34:27.283Z,49.33
2023-02-24T15:37:22.862Z,51.88
2023-02-24T15:40:22.366Z,52.30
2023-02-24T15:43:36.240Z,47.58
2023-02-24T15:46:49.853Z,51.65
2023-02-24T15:49:33.242Z,50.90
2023-02-24T15:52:11.549Z,46.00
2023-02-24T15:55:02.959Z,44.88
2023-02-24T15:57:35.686Z,52.67
2023-02-24T16:00:25.524Z,46.75
2023-02-24T16:03:16.747Z,46.53
2023-02-24T16:05:55.328Z,55.00
2023-02-24T16:08:44.758Z,42.78
2023-02-24T16:11:34.854Z,50.55
2023-02-24T16:14:24.044Z,42.53
2023-02-24T16:16:59.538Z,40.33
2023-02-24T16:19:47.390Z,49.92
2023-02-24T16:22:26.000Z,47.15
2023-02-24T16:25:10.340Z,54.78
2023-02-24T16:27:48.803Z,68.80
2023-02-24T16:30:30.432Z,70.88
2023-02-24T16:33:19.757Z,73.28
2023-02-24T16:36:08.810Z,61.05
2023-02-24T16:38:57.323Z,58.40
2023-02-24T16:41:40.831Z,60.25
2023-02-24T16:44:31.475Z,56.42
2023-02-24T16:47:21.510Z,51.45
2023-02-24T16:50:06.837Z,62.75
2023-02-24T16:52:58.069Z,55.45
2023-02-24T16:55:49.736Z,55.80
2023-02-24T16:58:34.463Z,65.03
2023-02-24T17:01:17.962Z,57.80
2023-02-24T17:03:55.652Z,54.03
2023-02-24T17:06:35.740Z,58.55
2023-02-24T17:09:36.301Z,59.70
2023-02-24T17:12:22.804Z,56.08
2023-02-24T17:15:10.112Z,57.35
2023-02-24T17:17:59.164Z,60.08
2023-02-24T17:20:43.338Z,56.72
2023-02-24T17:23:24.850Z,62.60
2023-02-24T17:26:08.306Z,68.93
2023-02-24T17:28:50.858Z,60.47
2023-02-24T17:31:33.448Z,67.00
2023-02-24T17:34:17.951Z,70.50
2023-02-24T17:37:02.929Z,64.05
2023-02-24T17:39:41.060Z,64.65
2023-02-24T17:42:17.659Z,61.72
2023-02-24T17:44:58.337Z,70.15
2023-02-24T17:47:46.497Z,68.38
2023-02-24T17:50:44.735Z,62.65
2023-02-24T17:53:27.803Z,58.25
2023-02-24T17:56:20.100Z,63.03
2023-02-24T17:59:01.683Z,56.40
2023-02-24T18:01:42.753Z,45.47
2023-02-24T18:04:37.190Z,51.47
2023-02-24T18:07:20.739Z,45.72
2023-02-24T18:10:01.030Z,52.75
2023-02-24T18:12:41.526Z,47.83
2023-02-24T18:15:34.832Z,50.45
2023-02-24T18:18:30.387Z,50.03
2023-02-24T18:21:02.422Z,48.47
2023-02-24T18:23:57.995Z,52.00
2023-02-24T18:26:46.504Z,54.83
2023-02-24T18:29:45.765Z,47.38
2023-02-24T18:32:26.979Z,44.42
2023-02-24T18:35:03.086Z,55.25
2023-02-24T18:37:58.373Z,53.42
2023-02-24T18:40:33.587Z,55.78
2023-02-24T18:43:20.255Z,56.45
2023-02-24T18:46:04.283Z,51.70
2023-02-24T18:51:29.420Z,44.40
2023-02-24T18:54:16.748Z,51.13
2023-02-24T18:57:03.045Z,54.95
2023-02-24T19:00:11.592Z,52.97
2023-02-24T19:02:56.057Z,49.95
2023-02-24T19:06:01.387Z,43.42
2023-02-24T19:08:45.109Z,47.83
2023-02-24T19:11:29.865Z,51.55
2023-02-24T19:14:04.360Z,49.58
2023-02-24T19:16:51.985Z,46.83
2023-02-24T19:19:32.375Z,48.38
2023-02-24T19:22:16.109Z,56.55
2023-02-24T19:25:04.684Z,52.47
2023-02-24T19:27:59.252Z,47.83
2023-02-24T19:30:48.933Z,49.92
2023-02-24T19:33:35.259Z,51.55
2023-02-24T19:36:13.791Z,48.55
2023-02-24T19:38:55.543Z,46.53
2023-02-24T19:41:37.970Z,44.53
2023-02-24T19:44:21.064Z,41.45
2023-02-24T19:47:01.787Z,45.13
2023-02-24T19:49:42.509Z,41.38
2023-02-24T19:52:25.087Z,37.15
2023-02-24T19:55:11.959Z,40.38
2023-02-24T19:57:58.607Z,45.95
2023-02-24T20:00:40.818Z,37.53
2023-02-24T20:03:29.818Z,42.80
2023-02-24T20:06:29.232Z,41.10
2023-02-24T20:09:16.643Z,34.97
2023-02-24T20:11:59.109Z,42.67
2023-02-24T20:14:43.031Z,41.92
2023-02-24T20:17:12.632Z,36.35
2023-02-24T20:19:55.724Z,39.75
2023-02-24T20:22:42.723Z,39.47
2023-02-24T20:25:33.944Z,43.45
2023-02-24T20:28:13.243Z,41.00
2023-02-24T20:30:57.173Z,42.58
2023-02-24T20:33:41.752Z,41.30
2023-02-24T20:36:23.271Z,42.13
2023-02-24T20:39:09.638Z,46.50
2023-02-24T20:41:53.642Z,33.63
2023-02-24T20:47:24.185Z,37.95
2023-02-24T20:50:17.194Z,43.22
2023-02-24T20:53:07.673Z,42.47
2023-02-24T20:55:54.189Z,48.08
2023-02-24T20:58:38.221Z,47.53
2023-02-24T21:04:28.405Z,37.40
2023-02-24T21:07:20.166Z,44.60
2023-02-24T21:10:04.009Z,41.17
2023-02-24T21:12:58.813Z,39.60
2023-02-24T21:15:37.043Z,48.60
2023-02-24T21:18:21.687Z,46.35
2023-02-24T21:21:11.763Z,38.83
2023-02-24T21:23:50.437Z,41.38
2023-02-24T21:26:32.026Z,46.75
2023-02-24T21:29:18.729Z,42.05
2023-02-24T21:32:01.722Z,43.75
2023-02-24T21:34:53.801Z,48.17
2023-02-24T21:40:18.814Z,39.97
2023-02-24T21:43:01.657Z,46.50
2023-02-24T21:45:53.673Z,49.03
2023-02-24T21:48:34.837Z,40.78
2023-02-24T21:51:15.825Z,44.53
2023-02-24T21:54:02.674Z,39.20
2023-02-24T21:56:47.757Z,42.50
2023-02-24T21:59:33.762Z,41.40
2023-02-24T22:02:18.145Z,39.85
2023-02-24T22:05:07.579Z,42.65
2023-02-24T22:07:49.375Z,42.67
2023-02-24T22:10:40.874Z,45.45
2023-02-24T22:13:29.854Z,39.97
2023-02-24T22:16:15.218Z,39.47
2023-02-24T22:19:04.958Z,47.70
2023-02-24T22:21:46.585Z,44.58
2023-02-24T22:24:36.255Z,46.00
2023-02-24T22:27:25.595Z,39.58
2023-02-24T22:30:10.874Z,41.38
2023-02-24T22:33:04.442Z,39.63
2023-02-24T22:35:47.252Z,42.80
2023-02-24T22:38:34.365Z,37.72
2023-02-24T22:41:12.795Z,39.60
2023-02-24T22:43:59.356Z,42.97
2023-02-24T22:46:46.180Z,47.03
2023-02-24T22:49:34.804Z,51.50
2023-02-24T22:52:20.057Z,43.58
2023-02-24T22:55:09.797Z,44.20
2023-02-24T22:57:52.777Z,52.60
2023-02-24T23:03:32.828Z,53.30
2023-02-24T23:06:22.002Z,62.78
2023-02-24T23:09:08.731Z,49.47
2023-02-24T23:11:47.886Z,44.70
2023-02-24T23:14:34.960Z,53.90
2023-02-24T23:17:33.776Z,48.83
2023-02-24T23:20:17.849Z,48.72
2023-02-24T23:23:05.539Z,49.17
2023-02-24T23:25:50.970Z,53.90
2023-02-24T23:28:32.898Z,49.07
2023-02-24T23:31:23.861Z,47.58
2023-02-24T23:34:19.204Z,48.78
2023-02-24T23:37:01.802Z,49.60
2023-02-24T23:39:53.557Z,52.38
2023-02-24T23:42:36.901Z,44.85
2023-02-24T23:45:32.384Z,48.75
2023-02-24T23:48:21.629Z,48.67
2023-02-24T23:51:11.888Z,44.88
2023-02-24T23:53:58.071Z,55.55
2023-02-24T23:57:04.472Z,55.30
2023-02-24T23:59:52.818Z,51.33
